Pagrindinis puslapis
METAR-TAF:

METAR-TAF

Oro uostai :

Midland, Teksasas, Jungtinės Amerikos Valstijos

platuma: 31-56-52N, ilguma: 102-12-31W, Aukštis: 875 m

Dabartinis oras

Ataskaita buvo paskelbta 19 minutes, ne 12:53 UTC
Vėjas 3 kt iš Pietų
Temperatūra 7°C
Drėgmė 87%
Slėgis 1018 hPa
Matomumas: 16.1 km
Giedras dangus

METAR: KMAF 301253Z 19003KT 10SM CLR 07/05 A3007 RMK AO2 SLP162 T00670050

Laikas: 07:12 (13:12 UTC)

Prognozė

Ataskaita buvo paskelbta 1 valandą ir 52 minutes, ne 11:20 UTC
Prognozė galioja nuo 30 metu 12 UTC su 01 metu 12 UTC
Vėjas 6 kt iš Pietvakarių
Matomumas: 10 km
Išsisklaidę debesys ne aukštis 25000 ft
Nuo 01 metu 0400 UTC
Vėjas 5 kt iš Šiaurės/Šiaurės Vakarų
Matomumas: 10 km
Giedras dangus

TAF: KMAF 301120Z 3012/0112 22006KT P6SM SCT250 FM010400 34005KT P6SM SKC

Orai ataskaitas ir orų prognozės (METAR, TAF).

turimą stotys yra geltonos ir raudonos taškus žemėlapyje.

Perkelti pele per norėdami pamatyti stoties vardą.

Tada spustelėkite, norėdami matyti oro stebėjimo ir prognozės.

Norėdami pakeisti žemėlapį: spustelėkite ant žalios mygtukų su juodo kryžiaus žemyn,; žalią mygtuką su brūkšneliu, jei norite nutolinti; arba žalių rodyklių gretimoms žemėlapius.


METAR-TAF: